Time;durP1;ratioP1;P1;durP2;ratioP2;P2;SDS_P1;SDS_P2;PMS_P1;PMS_P2;Temp;Humidity;BMP_temperature;BMP_pressure;BME280_temperature;BME280_humidity;BME280_pressure;Samples;Min_cycle;Max_cycle;Signal;HPM_P1;HPM_P2
2022/06/22 00:01:40;;;;;;;6.45;2.83;;;23.40;57.40;;;23.74;72.82;99893.88;4971195;28;20046;-79
2022/06/22 00:04:21;;;;;;;5.78;3.03;;;23.30;56.90;;;23.68;65.32;99890.88;4971102;28;20371;-80
2022/06/22 00:06:59;;;;;;;4.68;2.28;;;23.40;55.70;;;23.77;61.04;99901.66;4978386;28;20050;-79
2022/06/22 00:09:37;;;;;;;6.55;3.13;;;23.30;55.10;;;23.60;59.30;99894.22;4985921;28;20417;-79
2022/06/22 00:12:07;;;;;;;4.40;2.58;;;23.30;54.50;;;23.51;57.03;99894.06;4986290;28;20567;-79
2022/06/22 00:14:46;;;;;;;8.50;2.40;;;23.30;54.00;;;23.55;57.55;99877.66;4985963;28;20039;-79
2022/06/22 00:17:35;;;;;;;8.73;2.67;;;23.20;54.20;;;23.57;57.13;99870.31;4986396;28;20049;-79
2022/06/22 00:20:30;;;;;;;3.88;2.17;;;23.20;54.30;;;23.63;56.70;99872.47;4969373;28;20047;-81
2022/06/22 00:23:24;;;;;;;6.13;2.53;;;23.20;54.30;;;23.57;57.41;99859.59;4986477;28;20039;-80
2022/06/22 00:25:51;;;;;;;4.32;2.28;;;23.10;54.30;;;23.55;56.51;99856.19;4985766;28;20046;-79
2022/06/22 00:28:31;;;;;;;5.18;3.00;;;23.20;54.20;;;23.55;56.12;99838.22;4986191;28;20053;-79
2022/06/22 00:31:42;;;;;;;6.55;2.50;;;23.10;54.10;;;23.54;56.23;99847.28;4988694;28;20057;-80
2022/06/22 00:34:09;;;;;;;5.78;2.95;;;23.10;54.00;;;23.49;55.51;99863.81;4970658;28;20126;-79
2022/06/22 00:36:41;;;;;;;5.35;2.60;;;23.10;53.80;;;23.44;56.45;99871.38;4979886;28;20130;-79
2022/06/22 00:39:21;;;;;;;4.93;2.63;;;23.10;54.00;;;23.45;55.67;99870.41;4970248;28;20428;-79
2022/06/22 00:42:00;;;;;;;5.35;2.45;;;23.10;53.90;;;23.31;56.87;99878.78;4969605;28;20047;-79
2022/06/22 00:44:33;;;;;;;3.38;2.55;;;23.00;54.00;;;23.34;55.11;99868.66;4970674;28;20043;-79
2022/06/22 00:47:12;;;;;;;3.88;2.42;;;23.00;53.80;;;23.31;55.82;99839.41;4985698;28;20042;-79
2022/06/22 00:49:44;;;;;;;3.70;2.33;;;22.90;53.90;;;23.19;57.05;99816.25;4953529;28;20579;-79
2022/06/22 00:52:33;;;;;;;4.57;2.58;;;22.90;54.10;;;22.97;59.28;99815.44;4981450;28;20300;-78
2022/06/22 00:55:01;;;;;;;3.53;2.20;;;22.80;54.30;;;23.08;60.15;99825.25;4989668;28;20053;-80
2022/06/22 00:57:36;;;;;;;8.82;3.10;;;22.80;54.70;;;23.15;59.60;99822.88;4972329;28;20050;-79
2022/06/22 01:00:28;;;;;;;3.35;2.13;;;22.80;54.70;;;23.08;60.79;99834.13;4989988;28;20043;-78
2022/06/22 01:03:16;;;;;;;4.53;2.20;;;22.80;54.90;;;22.94;63.25;99842.50;4968281;28;20047;-79
2022/06/22 01:06:12;;;;;;;5.38;2.00;;;22.70;55.20;;;23.01;63.18;99850.88;4966978;28;20070;-78
2022/06/22 01:09:41;;;;;;;5.07;2.17;;;22.70;55.30;;;23.10;61.29;99852.78;4952245;29;20489;-78
2022/06/22 01:12:39;;;;;;;3.53;2.28;;;22.70;55.20;;;22.90;63.75;99843.75;4951428;29;20059;-78
2022/06/22 01:15:40;;;;;;;2.88;2.10;;;22.60;55.40;;;23.00;62.58;99836.63;4972152;28;20663;-78
2022/06/22 01:18:37;;;;;;;5.38;2.28;;;22.60;55.50;;;22.94;63.67;99848.72;4939223;28;20055;-78
2022/06/22 01:21:08;;;;;;;3.35;2.10;;;22.60;55.60;;;22.89;63.17;99859.00;4954054;28;20070;-78
2022/06/22 01:23:45;;;;;;;2.72;2.38;;;22.60;55.60;;;22.84;64.89;99857.69;4971552;28;20051;-77
2022/06/22 01:26:36;;;;;;;6.90;2.20;;;22.50;55.70;;;22.74;65.86;99861.13;4955409;28;20050;-77
2022/06/22 01:29:24;;;;;;;2.38;2.05;;;22.40;55.80;;;22.67;66.24;99855.41;4968511;28;20073;-77
2022/06/22 01:32:07;;;;;;;4.13;1.75;;;22.40;56.00;;;22.49;67.97;99857.81;4938639;28;20047;-78
2022/06/22 01:34:39;;;;;;;4.13;2.38;;;22.30;56.00;;;22.45;67.87;99860.84;4955699;28;20500;-78
2022/06/22 01:37:20;;;;;;;4.25;2.20;;;22.30;56.10;;;22.49;67.11;99873.91;4991984;28;20133;-78
2022/06/22 01:40:16;;;;;;;6.70;2.17;;;22.20;56.10;;;22.44;66.25;99886.78;4978282;28;20069;-77
2022/06/22 01:43:25;;;;;;;3.30;1.77;;;22.20;56.10;;;22.28;66.08;99883.66;4993424;28;20884;-78
2022/06/22 01:46:22;;;;;;;2.30;1.85;;;22.10;55.90;;;22.38;65.29;99887.28;4979080;28;20046;-78
2022/06/22 01:49:04;;;;;;;4.40;2.40;;;22.10;55.80;;;22.25;64.92;99892.81;4991896;28;20539;-78
2022/06/22 01:51:51;;;;;;;4.07;2.30;;;22.00;55.80;;;22.27;65.48;99901.56;4975750;28;20050;-78
2022/06/22 01:54:35;;;;;;;4.05;2.92;;;22.00;55.90;;;22.20;65.55;99893.16;4959508;28;20065;-78
2022/06/22 01:57:20;;;;;;;3.85;2.50;;;21.90;55.90;;;22.09;65.88;99891.34;4977150;28;20050;-77
2022/06/22 02:05:12;;;;;;;5.53;2.35;;;20.90;55.50;;;22.06;68.47;99872.00;5003887;28;20053;-78
2022/06/22 02:08:20;;;;;;;3.65;2.20;;;21.80;56.50;;;22.05;70.63;99864.94;4910953;29;20104;-79
2022/06/22 02:11:42;;;;;;;4.25;2.28;;;21.70;56.80;;;21.98;73.47;99844.97;4869470;29;20053;-79
2022/06/22 02:14:21;;;;;;;5.05;2.45;;;21.70;57.30;;;21.94;75.72;99831.00;4890757;29;20077;-78
2022/06/22 02:17:01;;;;;;;4.30;2.58;;;21.70;57.60;;;21.84;78.11;99824.66;4875107;29;20061;-78
2022/06/22 02:19:30;;;;;;;3.13;2.40;;;21.70;57.90;;;21.80;75.48;99826.72;4873507;29;20053;-78
2022/06/22 02:22:00;;;;;;;;;;;21.60;57.50;;;21.81;77.39;99834.66;4875490;29;20048;-78
2022/06/22 02:24:52;;;;;;;6.50;2.65;;;21.60;57.80;;;21.84;74.48;99840.72;4905324;29;19923;-78
2022/06/22 02:27:23;;;;;;;2.90;2.05;;;21.60;57.50;;;21.87;72.14;99849.38;4889188;29;20056;-78
2022/06/22 02:29:58;;;;;;;4.88;2.75;;;21.60;57.30;;;21.68;74.91;99840.09;4874031;29;20581;-79
2022/06/22 02:32:37;;;;;;;2.70;2.17;;;21.60;57.60;;;21.71;74.09;99827.47;4890190;29;20060;-79
2022/06/22 02:35:09;;;;;;;5.97;2.60;;;21.50;57.60;;;21.60;74.46;99823.78;4891077;29;20053;-79
2022/06/22 02:37:46;;;;;;;6.30;2.97;;;21.50;57.70;;;21.62;77.21;99824.53;4923390;29;20164;-79
2022/06/22 02:40:21;;;;;;;4.22;2.33;;;21.40;57.90;;;21.54;80.11;99832.28;4905659;29;20086;-79
2022/06/22 02:45:39;;;;;;;3.92;2.25;;;21.30;58.70;;;21.39;81.58;99821.84;4951477;29;20393;-79
2022/06/22 02:48:29;;;;;;;3.60;2.55;;;21.30;58.70;;;21.39;78.82;99826.31;4951057;29;20604;-78
2022/06/22 02:51:41;;;;;;;4.15;2.30;;;21.20;58.80;;;21.45;77.84;99830.34;4918162;29;20501;-79
2022/06/22 02:54:32;;;;;;;3.67;1.85;;;21.10;58.70;;;21.29;80.56;99822.66;4953821;28;20070;-79
2022/06/22 02:57:42;;;;;;;5.60;2.60;;;21.10;58.70;;;21.36;81.60;99821.22;4954697;28;20065;-79
2022/06/22 03:00:10;;;;;;;4.93;1.77;;;21.10;58.70;;;21.21;85.82;99828.59;4952379;28;20495;-79
2022/06/22 03:02:37;;;;;;;4.55;2.30;;;21.00;59.60;;;21.06;89.59;99834.16;4970048;28;20070;-78
2022/06/22 03:05:05;;;;;;;4.43;2.10;;;20.90;60.20;;;21.06;89.62;99844.03;4990421;28;20038;-79
2022/06/22 03:07:38;;;;;;;4.78;2.30;;;20.90;60.40;;;21.08;88.18;99837.59;4991883;28;20050;-78
2022/06/22 03:10:28;;;;;;;4.30;2.33;;;20.80;60.50;;;20.97;92.25;99842.91;4974677;28;20046;-78
2022/06/22 03:13:57;;;;;;;6.93;2.53;;;20.80;60.90;;;20.87;95.16;99849.91;4993337;28;20587;-78
2022/06/22 03:18:08;;;;;;;6.95;2.45;;;20.80;61.70;;;20.87;93.44;99848.09;4988753;28;20437;-78
2022/06/22 03:21:16;;;;;;;2.42;1.92;;;20.70;61.80;;;20.80;93.59;99841.47;4961042;28;20524;-79
2022/06/22 03:25:48;;;;;;;3.58;2.10;;;20.70;62.00;;;20.92;92.82;99845.09;4959456;28;20105;-78
2022/06/22 03:30:01;;;;;;;2.70;2.00;;;20.50;62.20;;;20.79;95.51;99850.47;4969851;28;20050;-79
2022/06/22 03:44:07;;;;;;;4.63;2.28;;;20.60;63.00;;;20.81;91.48;99857.44;4943892;29;20052;-78
2022/06/22 03:47:42;;;;;;;3.83;2.58;;;20.50;62.80;;;20.58;99.03;99856.47;4930208;29;20059;-78
2022/06/22 03:50:43;;;;;;;3.60;2.35;;;20.50;64.30;;;20.72;97.42;99874.13;4896538;29;20059;-78
2022/06/22 03:53:24;;;;;;;3.05;2.30;;;20.50;64.40;;;20.81;94.87;99873.47;4901738;29;20051;-78
2022/06/22 03:56:01;;;;;;;3.75;2.45;;;20.50;64.10;;;20.70;98.08;99873.38;4918158;29;20059;-79
2022/06/22 03:58:29;;;;;;;3.38;2.50;;;20.50;64.90;;;20.67;96.28;99884.31;4886880;29;20240;-77
2022/06/22 04:00:58;;;;;;;4.85;2.17;;;20.50;64.60;;;20.69;95.73;99891.28;4898498;29;20548;-77
2022/06/22 04:03:25;;;;;;;3.10;2.13;;;20.50;64.50;;;20.80;94.19;99890.50;4886854;29;20051;-78
2022/06/22 04:05:57;;;;;;;6.05;2.55;;;20.60;64.70;;;20.91;90.21;99892.34;4890057;29;20664;-78
2022/06/22 04:08:37;;;;;;;3.45;2.47;;;20.60;63.90;;;20.90;91.79;99896.00;4985596;28;20062;-78
2022/06/22 04:11:14;;;;;;;;;;;20.70;64.00;;;20.91;92.45;99897.69;4977029;28;20077;-78
2022/06/22 04:13:51;;;;;;;3.28;2.10;;;20.70;64.30;;;20.90;95.36;99897.81;4993246;28;19932;-79
2022/06/22 04:16:26;;;;;;;3.22;2.20;;;20.70;65.00;;;20.74;91.49;99890.06;4993288;28;20057;-80
2022/06/22 04:19:11;;;;;;;7.38;2.70;;;20.60;64.10;;;20.82;90.64;99893.91;4957840;28;20423;-78
2022/06/22 04:21:48;;;;;;;5.40;2.30;;;20.60;64.10;;;20.76;90.27;99898.81;4987279;28;20050;-80
2022/06/22 04:24:46;;;;;;;2.72;2.20;;;20.60;64.00;;;20.81;89.69;99904.69;4990344;28;20050;-80
2022/06/22 04:27:40;;;;;;;6.50;2.30;;;20.50;63.90;;;20.82;90.87;99906.41;4973034;28;20055;-79
2022/06/22 04:30:17;;;;;;;3.22;2.65;;;20.60;64.50;;;20.84;90.43;99912.50;4973685;28;20046;-77
2022/06/22 04:33:09;;;;;;;3.22;2.28;;;20.60;64.30;;;20.81;88.16;99918.94;4987480;28;20038;-77
2022/06/22 04:36:16;;;;;;;4.72;2.60;;;20.60;64.00;;;20.71;89.10;99914.34;4977205;28;20046;-80
2022/06/22 04:39:22;;;;;;;4.57;2.28;;;20.60;64.10;;;20.84;86.68;99917.84;4994780;28;20070;-78
2022/06/22 04:41:49;;;;;;;3.00;2.00;;;20.60;63.90;;;20.87;87.13;99922.09;4997514;28;20073;-80
2022/06/22 04:44:25;;;;;;;4.88;2.00;;;20.60;64.10;;;20.91;87.71;99923.56;5002747;28;20484;-79
2022/06/22 04:46:58;;;;;;;4.63;2.15;;;20.60;64.20;;;20.86;88.34;99923.06;4975261;28;20126;-80
2022/06/22 04:49:42;;;;;;;6.63;2.30;;;20.60;64.30;;;20.83;85.64;99914.31;4981166;28;20175;-79
2022/06/22 04:52:38;;;;;;;4.50;2.10;;;21.60;64.40;;;20.85;85.28;99922.22;4979829;28;20325;-79
2022/06/22 04:55:06;;;;;;;4.35;2.10;;;20.60;64.00;;;20.91;85.74;99908.41;4979953;28;20055;-79
2022/06/22 04:57:39;;;;;;;3.78;2.20;;;20.60;63.90;;;21.02;85.42;99906.75;4991863;28;20069;-78
2022/06/22 05:00:20;;;;;;;4.65;2.33;;;20.60;64.00;;;21.09;85.57;99908.84;4996285;28;20043;-79
2022/06/22 05:02:56;;;;;;;6.13;2.40;;;20.70;64.40;;;21.15;86.86;99914.69;4973383;28;20114;-76
2022/06/22 05:05:30;;;;;;;4.15;2.22;;;20.80;64.60;;;21.23;86.53;99915.81;4967203;28;20061;-78
2022/06/22 05:08:19;;;;;;;2.60;2.17;;;20.80;64.60;;;21.14;85.43;99921.84;4958313;28;20555;-77
2022/06/22 05:11:09;;;;;;;4.22;2.20;;;20.90;64.20;;;21.16;89.56;99919.94;4977979;28;20035;-77
2022/06/22 05:13:40;;;;;;;;;;;20.90;65.10;;;21.23;91.54;99923.00;4968815;28;20047;-77
2022/06/22 05:16:16;;;;;;;3.63;2.50;;;20.90;65.50;;;21.29;92.39;99922.50;4979856;28;19929;-77
2022/06/22 05:18:48;;;;;;;4.60;2.28;;;20.90;66.20;;;21.29;94.53;99930.53;4979192;28;20042;-77
2022/06/22 05:21:19;;;;;;;6.40;2.70;;;20.90;66.80;;;21.30;96.18;99928.69;4962549;28;20042;-76
2022/06/22 05:23:59;;;;;;;5.50;2.65;;;21.00;67.50;;;21.15;96.73;99934.28;4992306;28;20077;-78
2022/06/22 05:26:28;;;;;;;3.95;2.38;;;20.90;67.30;;;21.23;91.67;99931.03;4994509;28;20042;-78
2022/06/22 05:29:32;;;;;;;4.78;2.50;;;21.00;66.50;;;21.36;91.44;99938.94;4972985;28;20114;-78
2022/06/22 05:32:08;;;;;;;3.67;2.63;;;21.00;66.60;;;21.35;91.46;99930.06;4985986;28;20496;-79
2022/06/22 05:34:44;;;;;;;6.80;2.30;;;21.00;66.80;;;21.35;91.80;99931.91;4989849;28;20045;-79
2022/06/22 05:37:24;;;;;;;3.92;2.40;;;20.90;66.60;;;21.38;92.95;99940.53;4970284;28;20393;-79
2022/06/22 05:39:58;;;;;;;3.08;2.10;;;21.10;67.40;;;21.49;91.69;99941.53;4970511;28;20058;-79
2022/06/22 05:42:34;;;;;;;3.53;2.30;;;21.20;67.30;;;21.43;90.80;99942.00;4970988;28;20411;-79
2022/06/22 05:45:42;;;;;;;5.53;2.28;;;21.10;67.00;;;21.47;92.37;99952.38;4969707;28;20694;-79
2022/06/22 05:48:23;;;;;;;3.45;2.28;;;21.20;67.70;;;21.47;90.52;99948.81;4970776;28;20047;-79
2022/06/22 05:50:58;;;;;;;2.72;1.92;;;21.10;67.20;;;21.45;90.11;99948.94;4972501;28;20054;-79
2022/06/22 05:53:46;;;;;;;5.30;2.25;;;21.10;67.00;;;21.40;90.27;99945.75;4989893;28;20086;-80
2022/06/22 05:56:36;;;;;;;4.93;2.28;;;21.10;67.10;;;21.39;89.71;99952.09;4974695;28;20135;-78
2022/06/22 05:59:39;;;;;;;3.83;2.55;;;21.10;67.00;;;21.42;88.11;99949.16;4973776;28;20063;-79
2022/06/22 06:02:19;;;;;;;2.88;2.10;;;21.10;66.90;;;21.49;85.56;99947.75;4971389;28;20059;-78
2022/06/22 06:05:08;;;;;;;5.75;2.15;;;21.10;66.30;;;21.58;88.89;99956.03;4974471;28;20074;-79
2022/06/22 06:07:46;;;;;;;11.10;2.75;;;21.20;67.00;;;21.59;91.34;99955.06;4973048;28;20587;-78
2022/06/22 06:10:33;;;;;;;2.50;2.05;;;21.20;67.80;;;21.62;92.29;99944.09;4973464;28;20074;-79
2022/06/22 06:13:14;;;;;;;5.57;2.72;;;21.20;68.00;;;21.65;91.11;99942.09;4988253;28;20101;-78
2022/06/22 06:15:41;;;;;;;3.53;2.30;;;21.30;68.00;;;21.60;89.90;99960.31;4974030;28;20047;-78
2022/06/22 06:18:19;;;;;;;3.50;2.20;;;21.30;67.90;;;21.48;90.21;100012.09;4972883;28;20190;-78
2022/06/22 06:20:50;;;;;;;3.55;2.35;;;21.30;67.40;;;21.30;89.97;100031.22;4987883;28;20039;-79
2022/06/22 06:23:23;;;;;;;3.72;2.40;;;21.30;66.80;;;21.27;92.23;100014.56;4956232;28;20067;-78
2022/06/22 06:28:50;;;;;;;3.88;2.20;;;21.10;69.20;;;21.40;100.00;99999.28;4985612;28;20046;-79
2022/06/22 06:31:44;;;;;;;8.10;2.58;;;21.10;70.80;;;21.36;98.86;99987.94;4987682;28;20082;-79
2022/06/22 06:34:19;;;;;;;3.92;2.58;;;21.10;70.70;;;21.39;93.57;99985.06;4972529;28;20552;-79
2022/06/22 06:37:12;;;;;;;5.47;2.42;;;21.00;69.20;;;21.42;93.06;99985.81;4975975;28;20074;-79
2022/06/22 06:39:51;;;;;;;3.25;2.30;;;21.00;69.20;;;21.41;96.54;99992.97;4993349;28;20062;-79
2022/06/22 06:42:31;;;;;;;5.87;2.97;;;21.10;70.40;;;21.35;100.00;99991.59;4991874;28;20039;-79
2022/06/22 06:45:15;;;;;;;6.50;2.95;;;21.10;72.70;;;21.45;100.00;99980.22;4978129;28;20444;-79
2022/06/22 06:47:47;;;;;;;5.38;2.75;;;21.10;73.40;;;21.48;100.00;99975.50;4972128;28;20137;-79
2022/06/22 06:50:38;;;;;;;6.03;2.50;;;20.00;73.60;;;21.56;100.00;99969.53;4972110;28;20403;-79
2022/06/22 06:53:48;;;;;;;5.07;2.72;;;21.20;75.00;;;21.64;100.00;99950.22;4964259;28;20559;-79
2022/06/22 06:56:28;;;;;;;4.00;2.20;;;21.20;73.80;;;21.73;99.16;99959.38;4993714;28;20136;-78
2022/06/22 06:59:00;;;;;;;7.07;2.70;;;21.30;73.50;;;21.75;96.37;99954.75;4996048;28;20038;-77
2022/06/22 07:01:35;;;;;;;3.22;2.38;;;21.40;72.50;;;21.85;94.72;99961.09;4991246;28;20042;-78
2022/06/22 07:04:14;;;;;;;7.30;2.85;;;21.50;72.10;;;21.90;93.92;99958.91;4988290;28;20050;-78
2022/06/22 07:06:41;;;;;;;5.45;2.88;;;21.50;71.60;;;21.74;96.25;99953.91;4974637;28;20077;-78
2022/06/22 07:09:24;;;;;;;4.32;2.58;;;21.50;72.10;;;21.81;96.76;99963.19;4973753;28;20066;-78
2022/06/22 07:11:58;;;;;;;7.00;2.70;;;21.50;72.30;;;21.88;97.75;99968.03;4963984;28;20394;-78
2022/06/22 07:14:29;;;;;;;5.93;2.55;;;21.50;72.90;;;21.83;97.84;99963.03;4997637;28;20053;-78
2022/06/22 07:17:09;;;;;;;4.50;2.60;;;21.60;72.90;;;21.86;95.84;99975.34;4981166;28;20050;-78
2022/06/22 07:19:54;;;;;;;;;;;21.60;72.30;;;21.76;95.94;99977.88;4981024;28;20511;-78
2022/06/22 07:23:01;;;;;;;6.80;2.42;;;22.50;72.20;;;21.61;96.65;99972.72;4970417;28;19925;-75
2022/06/22 07:25:40;;;;;;;5.50;2.88;;;21.60;71.70;;;21.77;95.34;99983.09;4977219;28;20701;-75
2022/06/22 07:28:37;;;;;;;3.57;2.57;;;21.60;72.00;;;21.61;98.02;99967.34;4980041;28;20494;-76
2022/06/22 07:31:15;;;;;;;3.53;2.53;;;21.60;72.60;;;21.74;97.56;99972.63;4958949;28;20435;-77
2022/06/22 07:33:55;;;;;;;8.00;2.85;;;21.50;72.80;;;21.74;96.25;99974.47;4970544;28;20190;-76
2022/06/22 07:36:54;;;;;;;5.10;2.58;;;21.50;72.80;;;21.72;100.00;99974.59;4958691;28;20057;-76
2022/06/22 07:39:35;;;;;;;4.35;2.38;;;21.50;73.90;;;21.70;100.00;99971.19;4974165;28;20059;-75
2022/06/22 07:42:02;;;;;;;6.65;2.60;;;21.50;74.20;;;21.75;100.00;99976.19;4982263;28;20070;-76
2022/06/22 07:44:33;;;;;;;5.32;2.85;;;21.50;74.20;;;21.70;100.00;99979.22;4982123;28;20117;-76
2022/06/22 07:47:33;;;;;;;4.47;2.38;;;21.60;74.60;;;21.84;97.57;99979.97;4980254;28;20062;-77
2022/06/22 07:50:25;;;;;;;4.95;3.03;;;21.60;73.80;;;21.92;97.40;99982.88;4978533;28;20039;-77
2022/06/22 07:53:19;;;;;;;5.32;2.22;;;21.60;73.80;;;21.97;100.00;99978.03;4978408;28;20043;-76
2022/06/22 07:56:24;;;;;;;5.53;2.78;;;21.70;76.20;;;22.00;100.00;99971.56;4982726;28;20507;-76
2022/06/22 07:59:19;;;;;;;3.78;2.80;;;21.70;77.80;;;21.94;100.00;99970.25;4978637;28;20053;-76
2022/06/22 08:01:49;;;;;;;9.77;3.28;;;21.80;79.20;;;21.89;100.00;99962.56;4980724;28;20039;-76
2022/06/22 08:04:49;;;;;;;3.47;2.58;;;21.80;81.10;;;21.98;100.00;99960.13;4973922;28;20047;-76
2022/06/22 08:07:26;;;;;;;7.47;3.40;;;21.80;81.70;;;21.91;100.00;99963.31;4981638;28;20054;-75
2022/06/22 08:10:25;;;;;;;5.57;2.65;;;21.80;82.00;;;22.09;100.00;99958.34;4972810;28;20054;-75
2022/06/22 08:13:12;;;;;;;6.18;2.55;;;21.80;82.20;;;22.14;100.00;99957.09;4985004;28;20091;-75
2022/06/22 08:15:50;;;;;;;4.95;2.83;;;21.80;81.10;;;22.19;100.00;99950.41;4968616;28;20043;-76
2022/06/22 08:18:19;;;;;;;7.18;3.38;;;21.90;81.70;;;22.12;100.00;99949.19;4950514;28;20520;-74
2022/06/22 08:20:49;;;;;;;6.32;2.92;;;21.90;81.90;;;22.26;100.00;99958.81;4967467;28;20419;-74
2022/06/22 08:23:24;;;;;;;8.65;2.67;;;21.90;81.70;;;22.23;100.00;99953.66;4968171;28;20134;-74
2022/06/22 08:26:04;;;;;;;11.15;3.03;;;21.90;83.50;;;22.14;100.00;99955.25;4973731;28;20047;-76
2022/06/22 08:28:36;;;;;;;5.93;2.90;;;21.90;83.10;;;22.22;100.00;99954.66;4977768;28;20046;-74
2022/06/22 08:31:04;;;;;;;6.60;2.70;;;21.90;83.00;;;22.20;100.00;99951.25;4974399;28;20050;-74
2022/06/22 08:33:59;;;;;;;5.10;2.63;;;21.90;83.10;;;22.27;100.00;99944.44;4988075;28;20108;-74
2022/06/22 08:37:06;;;;;;;5.03;2.60;;;21.90;83.50;;;22.26;100.00;99945.41;4987991;28;20038;-74
2022/06/22 08:39:41;;;;;;;3.50;2.55;;;22.00;83.80;;;22.09;100.00;99949.44;4976174;28;20064;-74
2022/06/22 08:42:21;;;;;;;8.50;2.60;;;22.00;82.90;;;22.16;100.00;99953.31;4987848;28;20046;-75
2022/06/22 08:45:22;;;;;;;6.78;2.70;;;21.90;83.00;;;22.18;100.00;99947.84;4989629;28;20149;-75
2022/06/22 08:48:31;;;;;;;5.43;2.97;;;21.90;81.10;;;22.23;95.90;99973.28;4971877;28;20077;-76
2022/06/22 08:51:46;;;;;;;5.13;2.30;;;21.90;78.60;;;22.20;89.94;99986.94;4967602;28;20053;-75
2022/06/22 08:54:44;;;;;;;4.90;2.85;;;21.90;77.10;;;22.12;90.66;99993.88;4986772;28;20401;-74
2022/06/22 08:57:32;;;;;;;7.40;2.80;;;21.90;76.30;;;22.03;88.85;99993.63;4987542;28;20096;-75
2022/06/22 09:00:17;;;;;;;4.00;2.72;;;21.90;75.60;;;22.15;89.09;99989.13;4989131;28;20042;-75
2022/06/22 09:03:35;;;;;;;7.93;3.38;;;21.90;75.80;;;22.15;92.84;99982.91;4988204;28;20072;-74
2022/06/22 09:06:14;;;;;;;9.35;3.45;;;21.80;76.40;;;22.09;95.03;99982.44;4981315;28;20050;-76
2022/06/22 09:09:19;;;;;;;4.88;2.55;;;21.80;77.30;;;22.02;100.00;99972.34;4974983;28;20133;-77
2022/06/22 09:12:24;;;;;;;5.95;3.10;;;21.80;78.40;;;21.95;100.00;99980.81;4987672;28;20766;-74
2022/06/22 09:15:17;;;;;;;5.45;3.03;;;21.80;79.70;;;21.93;100.00;99989.94;4987544;28;20046;-75
2022/06/22 09:18:26;;;;;;;5.03;3.13;;;21.70;80.90;;;21.89;100.00;99996.53;4988986;28;20073;-75
2022/06/22 09:20:52;;;;;;;5.97;3.53;;;21.70;83.30;;;21.84;100.00;100006.75;4955854;28;20061;-74
2022/06/22 09:23:43;;;;;;;7.65;3.67;;;21.60;86.90;;;21.78;100.00;100000.91;4969787;28;20484;-74
2022/06/22 09:26:44;;;;;;;5.78;3.53;;;21.60;87.80;;;21.72;100.00;100009.38;4970768;28;20046;-74
2022/06/22 09:29:45;;;;;;;8.43;3.72;;;21.60;88.20;;;21.64;100.00;100019.81;4987627;28;20064;-74
2022/06/22 09:32:31;;;;;;;4.82;3.03;;;21.50;89.00;;;21.57;100.00;100013.22;4973441;28;20043;-74
2022/06/22 09:35:13;;;;;;;4.35;3.30;;;21.50;89.30;;;21.38;100.00;100020.78;4971850;28;20053;-74
2022/06/22 09:38:10;;;;;;;4.05;2.55;;;21.30;88.50;;;21.37;100.00;100008.38;4986786;28;20039;-74
2022/06/22 09:40:56;;;;;;;5.20;3.00;;;21.30;87.90;;;21.51;100.00;99999.34;4971200;28;20053;-75
2022/06/22 09:43:44;;;;;;;4.78;3.05;;;21.20;87.50;;;21.56;100.00;99998.13;4971502;28;20050;-74
2022/06/22 09:46:48;;;;;;;5.93;2.97;;;21.30;87.30;;;21.85;100.00;99990.53;4971462;28;20046;-74
2022/06/22 09:49:37;;;;;;;4.78;3.10;;;21.40;88.10;;;21.87;100.00;99993.13;4971326;28;20027;-74
2022/06/22 09:52:30;;;;;;;6.88;3.22;;;21.50;87.40;;;21.90;100.00;99991.06;4971923;28;20054;-75
2022/06/22 09:58:36;;;;;;;5.72;3.22;;;21.60;85.70;;;21.99;100.00;99993.97;4972005;28;20420;-74
2022/06/22 10:01:40;;;;;;;8.52;3.40;;;21.70;85.80;;;22.17;100.00;99991.69;4971061;28;20611;-74
2022/06/22 10:04:48;;;;;;;4.95;3.20;;;21.70;88.00;;;22.09;100.00;100009.22;4971796;28;20072;-74
2022/06/22 10:07:35;;;;;;;6.57;3.42;;;21.80;90.00;;;22.06;100.00;100012.13;4972688;28;20105;-74
2022/06/22 10:10:36;;;;;;;6.78;3.53;;;21.80;90.30;;;22.00;100.00;100017.97;4971482;28;20571;-75
2022/06/22 10:13:24;;;;;;;5.55;3.47;;;21.80;91.40;;;21.87;100.00;100028.78;4990058;28;20535;-74
2022/06/22 10:16:15;;;;;;;4.43;3.38;;;21.80;92.20;;;21.76;100.00;100021.56;4974738;28;20043;-75
2022/06/22 10:19:06;;;;;;;4.95;3.58;;;21.70;92.50;;;21.69;100.00;100023.00;4992105;28;20043;-74
2022/06/22 10:21:42;;;;;;;8.38;4.32;;;21.70;91.60;;;21.77;100.00;100036.66;4990767;28;20574;-74
2022/06/22 10:24:38;;;;;;;5.47;3.65;;;21.60;92.10;;;21.72;100.00;100029.97;4991936;28;20046;-74
2022/06/22 10:27:44;;;;;;;6.72;4.13;;;21.50;91.90;;;21.68;100.00;100016.78;4976943;28;20572;-74
2022/06/22 10:30:22;;;;;;;7.13;4.13;;;21.50;92.50;;;21.53;100.00;100023.28;4991474;28;20057;-75
2022/06/22 10:33:45;;;;;;;6.50;4.35;;;21.40;92.90;;;21.50;100.00;100026.19;4991595;28;20121;-75
2022/06/22 10:36:15;;;;;;;7.18;4.28;;;21.40;93.20;;;21.67;100.00;100030.31;4988345;28;20066;-74
2022/06/22 10:39:20;;;;;;;6.22;4.18;;;21.40;94.10;;;21.75;100.00;100025.22;4988430;28;20465;-79
2022/06/22 10:46:08;;;;;;;11.98;5.28;;;21.50;93.50;;;21.60;100.00;100021.00;4996923;28;20043;-79
2022/06/22 10:49:12;;;;;;;6.38;5.22;;;21.50;94.00;;;21.60;100.00;100029.91;4991631;28;20065;-81
2022/06/22 10:52:12;;;;;;;5.68;4.10;;;21.50;94.00;;;21.81;100.00;100032.78;4976223;28;20049;-80
2022/06/22 10:54:53;;;;;;;11.23;4.57;;;21.50;94.50;;;22.12;100.00;100034.06;4997544;28;20038;-79
2022/06/22 10:58:03;;;;;;;8.50;4.80;;;21.70;95.00;;;22.26;100.00;100020.44;4967953;28;20041;-81
2022/06/22 11:01:18;;;;;;;6.43;4.57;;;21.80;94.70;;;22.12;100.00;100029.53;4982728;28;20039;-79
2022/06/22 11:03:51;;;;;;;9.07;5.38;;;22.00;93.40;;;22.48;100.00;100016.06;4987456;28;20050;-80
2022/06/22 11:06:55;;;;;;;8.02;4.97;;;22.00;93.80;;;22.56;100.00;100018.13;4977303;28;20054;-79
2022/06/22 11:09:55;;;;;;;8.85;5.82;;;22.20;92.70;;;22.76;100.00;100028.09;4998209;28;20508;-80
2022/06/22 11:12:48;;;;;;;7.82;5.28;;;22.30;93.20;;;22.58;100.00;100033.13;4995888;28;20077;-79
2022/06/22 11:15:32;;;;;;;8.07;5.30;;;22.50;92.50;;;22.49;100.00;100052.63;4980328;28;20054;-79
2022/06/22 11:18:22;;;;;;;6.05;5.07;;;22.50;92.20;;;22.45;100.00;100040.41;4987386;28;20043;-81
2022/06/22 11:21:21;;;;;;;8.70;5.35;;;22.30;92.60;;;22.44;100.00;100063.66;4979005;28;20402;-80
2022/06/22 11:24:48;;;;;;;6.28;4.82;;;22.30;92.50;;;22.63;100.00;100060.41;4996373;28;20046;-80
2022/06/22 11:34:14;;;;;;;7.07;4.65;;;22.40;93.10;;;22.64;100.00;100062.13;4984641;28;20154;-77
2022/06/22 11:37:45;;;;;;;6.80;5.72;;;22.40;92.10;;;22.64;100.00;100066.66;4963924;28;20142;-78
2022/06/22 11:40:36;;;;;;;6.80;5.43;;;22.40;92.40;;;22.71;100.00;100066.97;4973296;28;20050;-78
2022/06/22 11:43:41;;;;;;;8.10;4.95;;;22.30;92.50;;;22.78;100.00;100058.31;4959676;28;20051;-77
2022/06/22 11:46:26;;;;;;;7.43;5.72;;;22.40;92.50;;;22.73;100.00;100062.38;4981164;28;20098;-77
2022/06/22 11:49:25;;;;;;;6.80;5.88;;;22.40;92.30;;;22.59;100.00;100064.34;4974472;28;20047;-78
2022/06/22 11:52:20;;;;;;;7.10;5.75;;;22.40;92.50;;;22.56;100.00;100061.03;4975854;28;20479;-80
2022/06/22 11:55:12;;;;;;;11.32;5.95;;;21.20;92.30;;;22.64;100.00;100061.28;4978260;28;20051;-80
2022/06/22 11:57:47;;;;;;;7.88;6.00;;;22.30;93.00;;;22.55;100.00;100068.22;4977140;28;20054;-80
2022/06/22 12:01:10;;;;;;;6.38;5.47;;;22.30;93.10;;;22.54;100.00;100065.66;4977788;28;20047;-79
2022/06/22 12:04:06;;;;;;;8.27;5.50;;;22.30;93.20;;;22.51;100.00;100069.44;4991253;28;20054;-80
2022/06/22 12:07:03;;;;;;;;;;;22.20;93.10;;;22.52;100.00;100065.78;5001294;28;20043;-80
2022/06/22 12:09:59;;;;;;;6.95;5.57;;;22.10;93.30;;;22.34;100.00;100058.19;4978355;28;19965;-80
2022/06/22 12:13:01;;;;;;;8.80;6.28;;;22.20;93.30;;;22.30;100.00;100059.41;4979030;28;20046;-80
2022/06/22 12:15:46;;;;;;;8.85;6.35;;;22.10;93.30;;;22.48;100.00;100070.56;4976962;28;20063;-78
2022/06/22 12:19:10;;;;;;;9.18;5.90;;;22.10;93.40;;;22.35;100.00;100056.38;4976640;28;20070;-78